Time;durP1;ratioP1;P1;durP2;ratioP2;P2;SDS_P1;SDS_P2;PMS_P1;PMS_P2;Temp;Humidity;BMP_temperature;BMP_pressure;BME280_temperature;BME280_humidity;BME280_pressure;Samples;Min_cycle;Max_cycle;Signal;HPM_P1;HPM_P2
2024/03/10 00:05:02;;;;;;;18.10;14.65;;;10.30;71.80;;;;;;10384834;28;21440;-69
2024/03/10 00:10:07;;;;;;;17.27;14.38;;;10.30;71.90;;;;;;10380533;28;20224;-70
2024/03/10 00:15:11;;;;;;;18.25;15.13;;;10.30;72.00;;;;;;10386053;28;20312;-68
2024/03/10 00:20:17;;;;;;;18.88;15.45;;;10.30;72.00;;;;;;10381280;28;21504;-68
2024/03/10 00:25:21;;;;;;;19.67;15.32;;;10.20;72.00;;;;;;10386616;28;20590;-69
2024/03/10 00:30:25;;;;;;;19.75;15.73;;;10.20;72.00;;;;;;10382797;28;21259;-68
2024/03/10 00:35:30;;;;;;;16.95;14.30;;;10.10;72.00;;;;;;10383229;28;20207;-68
2024/03/10 00:40:34;;;;;;;18.40;15.45;;;10.10;72.10;;;;;;10379907;28;20231;-69
2024/03/10 00:45:37;;;;;;;18.88;15.18;;;10.10;72.20;;;;;;10379007;28;20280;-69
2024/03/10 00:50:42;;;;;;;19.08;15.15;;;10.00;72.20;;;;;;10380432;28;20227;-68
2024/03/10 00:55:47;;;;;;;18.85;15.77;;;10.00;72.10;;;;;;10382420;28;20203;-68
2024/03/10 01:00:51;;;;;;;21.00;16.60;;;10.00;72.30;;;;;;10383650;28;20772;-67
2024/03/10 01:05:56;;;;;;;20.08;15.07;;;10.00;73.30;;;;;;10381187;28;20248;-69
2024/03/10 01:11:00;;;;;;;19.45;15.00;;;10.00;72.40;;;;;;10382694;28;20253;-69
2024/03/10 01:16:05;;;;;;;18.67;15.70;;;10.00;72.50;;;;;;10378102;28;20205;-69
2024/03/10 01:21:10;;;;;;;19.07;15.53;;;10.00;72.40;;;;;;10381203;28;20278;-69
2024/03/10 01:26:14;;;;;;;17.33;15.30;;;10.00;72.40;;;;;;10310403;22;20374;-64
2024/03/10 01:31:18;;;;;;;18.90;15.50;;;10.00;72.50;;;;;;10275128;28;20206;-64
2024/03/10 01:36:24;;;;;;;19.38;15.00;;;10.00;72.60;;;;;;10290857;28;20270;-64
2024/03/10 01:41:27;;;;;;;19.00;15.50;;;9.90;74.00;;;;;;10294884;28;20209;-63
2024/03/10 01:46:32;;;;;;;18.33;15.52;;;10.00;72.90;;;;;;10289150;28;20225;-64
2024/03/10 01:51:39;;;;;;;18.35;15.00;;;10.00;72.70;;;;;;10286712;28;20201;-64
2024/03/10 01:56:43;;;;;;;19.83;14.98;;;10.00;72.70;;;;;;10290808;28;20229;-64
2024/03/10 02:01:47;;;;;;;17.57;14.60;;;10.00;72.60;;;;;;10290445;28;20233;-64
2024/03/10 02:06:52;;;;;;;19.45;15.10;;;9.90;73.60;;;;;;10288702;28;20302;-63
2024/03/10 02:11:57;;;;;;;17.67;15.13;;;9.90;73.60;;;;;;10290406;28;20258;-63
2024/03/10 02:17:00;;;;;;;18.73;15.47;;;9.90;74.00;;;;;;10285245;28;20229;-64
2024/03/10 02:22:08;;;;;;;17.77;15.45;;;9.90;73.90;;;;;;10290724;28;20220;-64
2024/03/10 02:27:16;;;;;;;18.77;15.47;;;9.80;74.40;;;;;;10292128;28;20232;-64
2024/03/10 02:48:25;;;;;;;20.27;16.63;;;9.80;74.10;;;;;;10291136;28;20214;-64
2024/03/10 02:53:29;;;;;;;19.10;15.48;;;9.80;74.20;;;;;;10293634;28;20229;-64
2024/03/10 02:58:35;;;;;;;20.17;15.88;;;9.80;74.20;;;;;;10290749;28;20217;-64
2024/03/10 03:03:38;;;;;;;20.53;16.43;;;9.80;74.20;;;;;;10291964;28;20228;-64
2024/03/10 03:08:42;;;;;;;21.87;17.10;;;9.70;74.10;;;;;;10286638;28;20209;-63
2024/03/10 03:13:48;;;;;;;21.80;17.52;;;9.70;74.20;;;;;;10285474;28;20280;-64
2024/03/10 03:18:52;;;;;;;22.58;17.67;;;9.70;74.50;;;;;;10287134;28;20213;-64
2024/03/10 03:23:56;;;;;;;19.67;16.63;;;9.60;74.90;;;;;;10289576;28;21271;-63
2024/03/10 03:29:02;;;;;;;23.77;17.50;;;9.60;74.40;;;;;;10291323;28;21535;-63
2024/03/10 03:34:06;;;;;;;21.23;17.10;;;9.60;74.50;;;;;;10285134;28;20226;-63
2024/03/10 03:39:11;;;;;;;19.70;16.20;;;9.60;74.50;;;;;;10287583;28;20205;-63
2024/03/10 03:44:18;;;;;;;20.27;16.83;;;9.50;74.60;;;;;;10291069;28;20238;-64
2024/03/10 03:49:22;;;;;;;21.87;16.60;;;9.50;74.50;;;;;;10296423;28;20208;-64
2024/03/10 03:54:25;;;;;;;19.70;16.63;;;9.40;74.30;;;;;;10295030;28;20272;-64
2024/03/10 03:59:30;;;;;;;22.70;16.60;;;9.40;74.50;;;;;;10296478;28;20308;-65
2024/03/10 04:04:34;;;;;;;19.13;16.47;;;9.40;74.60;;;;;;10296925;28;20342;-63
2024/03/10 04:09:38;;;;;;;19.70;15.87;;;9.30;74.30;;;;;;10293496;28;20205;-64
2024/03/10 04:14:43;;;;;;;20.45;16.10;;;9.30;74.60;;;;;;10291664;28;20225;-64
2024/03/10 04:19:46;;;;;;;22.10;16.87;;;9.20;74.60;;;;;;10297952;28;20304;-64
2024/03/10 04:24:50;;;;;;;19.50;16.03;;;9.20;74.50;;;;;;10297386;28;21372;-64
2024/03/10 04:29:55;;;;;;;20.67;16.10;;;9.10;74.60;;;;;;10297026;28;20213;-64
2024/03/10 04:34:59;;;;;;;23.07;16.83;;;9.00;74.70;;;;;;10296958;28;20279;-63
2024/03/10 04:40:06;;;;;;;20.17;16.47;;;9.00;74.40;;;;;;10293174;28;20660;-64
2024/03/10 04:45:12;;;;;;;19.87;16.37;;;8.90;74.70;;;;;;10290594;28;20236;-63
2024/03/10 04:50:18;;;;;;;21.60;16.90;;;8.90;74.60;;;;;;10293760;28;20213;-64
2024/03/10 04:55:22;;;;;;;20.90;16.77;;;8.90;74.70;;;;;;10294938;28;20228;-64
2024/03/10 05:00:27;;;;;;;20.10;16.27;;;8.90;74.70;;;;;;10295153;28;20258;-61
2024/03/10 05:05:31;;;;;;;21.23;16.17;;;8.80;74.70;;;;;;10296017;28;20783;-63
2024/03/10 05:10:34;;;;;;;19.20;15.30;;;8.80;74.50;;;;;;10293875;28;20231;-63
2024/03/10 05:15:39;;;;;;;19.70;15.93;;;8.80;74.70;;;;;;10293504;28;20216;-64
2024/03/10 05:20:43;;;;;;;18.77;15.10;;;8.70;74.70;;;;;;10295800;28;20278;-64
2024/03/10 05:25:47;;;;;;;21.13;16.03;;;8.70;73.90;;;;;;10295052;28;20236;-63
2024/03/10 05:30:52;;;;;;;20.03;15.73;;;8.70;74.90;;;;;;10294106;28;20213;-63
2024/03/10 05:35:56;;;;;;;21.27;15.97;;;8.60;74.70;;;;;;10297024;28;21136;-64
2024/03/10 05:41:00;;;;;;;18.90;15.87;;;8.60;74.70;;;;;;10291322;28;20208;-63
2024/03/10 05:46:05;;;;;;;19.97;16.13;;;8.60;74.80;;;;;;10291537;28;20232;-64
2024/03/10 05:51:12;;;;;;;21.47;16.67;;;8.50;74.90;;;;;;10290838;28;21481;-64
2024/03/10 05:56:17;;;;;;;21.40;16.53;;;8.50;75.00;;;;;;10293497;28;20228;-64
2024/03/10 06:01:23;;;;;;;20.77;16.60;;;8.50;75.10;;;;;;10290901;28;20204;-64
2024/03/10 06:06:28;;;;;;;22.07;17.03;;;8.50;75.10;;;;;;10289699;28;20229;-64
2024/03/10 06:11:33;;;;;;;22.90;17.23;;;8.50;75.10;;;;;;10286702;28;20205;-64
2024/03/10 06:16:38;;;;;;;21.73;16.63;;;8.40;75.10;;;;;;10287269;28;20761;-63
2024/03/10 06:27:03;;;;;;;19.37;15.73;;;8.40;74.90;;;;;;10293257;28;20647;-63
2024/03/10 06:32:08;;;;;;;22.37;15.37;;;8.40;75.00;;;;;;10295637;28;20201;-64
2024/03/10 06:37:12;;;;;;;20.17;15.53;;;8.40;75.30;;;;;;10294345;28;20252;-63
2024/03/10 06:42:16;;;;;;;18.53;14.93;;;8.40;75.00;;;;;;10291943;28;20740;-64
2024/03/10 06:47:21;;;;;;;19.63;16.17;;;8.40;75.00;;;;;;10294059;28;20234;-64
2024/03/10 06:52:25;;;;;;;18.67;15.13;;;8.50;75.00;;;;;;10292259;28;20295;-63
2024/03/10 06:57:28;;;;;;;20.00;16.03;;;8.50;75.10;;;;;;10292474;28;20235;-63
2024/03/10 07:02:38;;;;;;;18.23;14.77;;;8.50;75.10;;;;;;10291115;28;20209;-62
2024/03/10 07:07:50;;;;;;;20.35;17.40;;;8.60;76.10;;;;;;10293067;28;21523;-62
2024/03/10 07:12:55;;;;;;;20.67;15.97;;;8.60;75.30;;;;;;10295153;28;20225;-63
2024/03/10 07:18:00;;;;;;;19.90;15.90;;;8.70;75.00;;;;;;10297368;28;20243;-62
2024/03/10 07:23:04;;;;;;;19.53;16.00;;;8.80;75.50;;;;;;10298495;28;20245;-63
2024/03/10 07:28:07;;;;;;;21.17;16.13;;;8.80;75.00;;;;;;10334439;23;20314;-64
2024/03/10 07:33:12;;;;;;;19.40;15.47;;;8.90;75.30;;;;;;10326935;28;20294;-67
2024/03/10 07:38:16;;;;;;;18.83;15.33;;;8.90;75.20;;;;;;10325315;28;20220;-64
2024/03/10 07:43:20;;;;;;;20.27;15.13;;;9.00;75.30;;;;;;10324714;28;20205;-65
2024/03/10 07:48:25;;;;;;;18.83;15.63;;;9.10;75.90;;;;;;10324189;28;20784;-63
2024/03/10 07:53:28;;;;;;;20.83;15.77;;;9.10;75.50;;;;;;10321496;28;20205;-63
2024/03/10 07:58:32;;;;;;;20.10;15.95;;;9.20;75.60;;;;;;10323328;28;21400;-65
2024/03/10 08:03:37;;;;;;;20.27;15.57;;;9.30;75.30;;;;;;10321294;28;20345;-64
2024/03/10 08:08:40;;;;;;;18.73;15.18;;;9.30;75.10;;;;;;10323027;28;20286;-63
2024/03/10 08:13:45;;;;;;;19.60;15.48;;;9.40;75.20;;;;;;10322870;28;20251;-65
2024/03/10 08:18:50;;;;;;;19.97;16.90;;;9.50;75.30;;;;;;10322046;28;20209;-68
2024/03/10 08:23:54;;;;;;;18.13;16.23;;;9.60;75.40;;;;;;10319654;28;20540;-65
2024/03/10 08:28:58;;;;;;;19.20;16.23;;;9.70;75.30;;;;;;10314130;28;20225;-66
2024/03/10 08:34:05;;;;;;;19.77;16.30;;;9.80;75.70;;;;;;10313157;28;20224;-65
2024/03/10 08:39:08;;;;;;;21.17;17.38;;;9.90;75.90;;;;;;10314309;28;20206;-64
2024/03/10 08:44:12;;;;;;;19.53;16.17;;;10.00;74.40;;;;;;10313238;28;20675;-64
2024/03/10 08:49:17;;;;;;;19.30;16.67;;;10.10;74.40;;;;;;10316984;28;21061;-66
2024/03/10 08:54:21;;;;;;;20.17;17.40;;;10.20;74.40;;;;;;10316562;28;20731;-67
2024/03/10 08:59:25;;;;;;;21.88;16.40;;;10.30;74.60;;;;;;10320368;28;20209;-67
2024/03/10 09:04:30;;;;;;;20.65;16.45;;;10.40;74.60;;;;;;10318624;28;21645;-67
2024/03/10 09:09:34;;;;;;;21.60;17.98;;;10.50;74.40;;;;;;10318093;28;20679;-66
2024/03/10 09:14:37;;;;;;;25.10;18.23;;;10.60;74.60;;;;;;10321654;28;20232;-65
2024/03/10 09:19:42;;;;;;;20.30;16.88;;;10.60;74.50;;;;;;10319251;28;20208;-65
2024/03/10 09:24:48;;;;;;;19.98;16.92;;;10.60;74.50;;;;;;10320025;28;20334;-66
2024/03/10 09:29:52;;;;;;;21.52;17.80;;;10.70;74.60;;;;;;10315687;28;20209;-66
2024/03/10 09:34:57;;;;;;;19.23;17.07;;;10.90;74.70;;;;;;10312474;28;20225;-65
2024/03/10 09:40:01;;;;;;;21.20;17.63;;;11.00;74.50;;;;;;10319450;28;20217;-64
2024/03/10 09:45:15;;;;;;;19.55;17.45;;;11.20;74.70;;;;;;10316132;28;20229;-65
2024/03/10 09:50:23;;;;;;;21.42;18.08;;;11.30;74.60;;;;;;10318779;28;20258;-65
2024/03/10 09:55:28;;;;;;;21.40;18.27;;;11.40;74.50;;;;;;10318412;28;20594;-66
2024/03/10 10:00:31;;;;;;;23.27;18.58;;;11.50;74.50;;;;;;10319242;28;20209;-66
2024/03/10 10:05:42;;;;;;;21.83;18.52;;;11.50;74.50;;;;;;10319374;28;20855;-65
2024/03/10 10:10:49;;;;;;;23.38;19.08;;;11.70;74.60;;;;;;10317648;28;20235;-65
2024/03/10 10:15:53;;;;;;;22.45;19.60;;;11.80;74.50;;;;;;10320515;28;20228;-65
2024/03/10 10:20:58;;;;;;;21.30;18.42;;;12.00;74.40;;;;;;10320498;28;20209;-66
2024/03/10 10:26:09;;;;;;;21.95;18.55;;;12.20;74.60;;;;;;10320510;28;20237;-66
2024/03/10 10:31:14;;;;;;;22.90;19.60;;;12.40;74.60;;;;;;10317133;28;20261;-66
2024/03/10 10:36:21;;;;;;;22.42;19.45;;;12.50;74.60;;;;;;10314716;28;20256;-66
2024/03/10 10:41:26;;;;;;;21.42;18.80;;;12.70;74.60;;;;;;10319293;28;20205;-66
2024/03/10 10:46:31;;;;;;;20.25;18.05;;;12.80;74.40;;;;;;10318090;28;20224;-66
2024/03/10 10:51:36;;;;;;;21.38;19.08;;;12.90;74.30;;;;;;10314650;28;20212;-66
2024/03/10 10:56:39;;;;;;;21.63;18.88;;;13.10;74.60;;;;;;10319627;28;20274;-68
2024/03/10 11:01:43;;;;;;;20.45;18.30;;;13.10;74.40;;;;;;10323398;28;20220;-67
2024/03/10 11:06:55;;;;;;;22.52;20.13;;;13.30;74.40;;;;;;10322498;28;20240;-66
2024/03/10 11:11:59;;;;;;;22.10;19.77;;;13.30;73.70;;;;;;10320115;28;20931;-65
2024/03/10 11:17:12;;;;;;;24.90;21.08;;;13.30;74.30;;;;;;10323265;28;20286;-66
2024/03/10 11:22:25;;;;;;;21.48;19.38;;;13.50;74.10;;;;;;10321536;28;20804;-65
2024/03/10 11:27:32;;;;;;;24.27;20.15;;;13.60;74.20;;;;;;10323035;28;21046;-66
2024/03/10 11:32:36;;;;;;;23.35;20.80;;;13.70;74.00;;;;;;10321969;28;20213;-68
2024/03/10 11:37:42;;;;;;;23.30;20.80;;;13.70;73.90;;;;;;10326940;28;20216;-66
2024/03/10 11:42:47;;;;;;;22.40;19.88;;;13.80;74.20;;;;;;10323629;28;20212;-65
2024/03/10 11:47:51;;;;;;;22.77;20.42;;;14.00;74.00;;;;;;10320647;28;20267;-68
2024/03/10 11:52:57;;;;;;;23.48;21.02;;;14.20;74.00;;;;;;10317479;28;20216;-67
2024/03/10 11:58:01;;;;;;;23.20;20.70;;;14.20;73.70;;;;;;10318133;28;20287;-65
2024/03/10 12:03:06;;;;;;;23.92;21.42;;;14.20;74.00;;;;;;10317634;28;20313;-66
2024/03/10 12:08:13;;;;;;;24.88;22.17;;;14.40;74.20;;;;;;10316680;28;20480;-65
2024/03/10 12:13:20;;;;;;;23.88;19.80;;;14.40;73.50;;;;;;10318970;28;20217;-65
2024/03/10 12:18:24;;;;;;;24.60;21.95;;;14.50;72.80;;;;;;10319492;28;20205;-66
2024/03/10 12:23:33;;;;;;;23.40;20.88;;;14.60;73.30;;;;;;10321794;28;20239;-66
2024/03/10 12:28:37;;;;;;;23.95;21.27;;;14.80;73.30;;;;;;10322687;28;20313;-66
2024/03/10 12:33:43;;;;;;;22.60;20.27;;;15.00;73.30;;;;;;10318858;28;20235;-66
2024/03/10 12:38:48;;;;;;;24.17;21.67;;;15.10;73.00;;;;;;10318352;28;20213;-67
2024/03/10 12:43:55;;;;;;;25.10;22.45;;;15.20;72.90;;;;;;10320771;28;20232;-64
2024/03/10 12:48:59;;;;;;;25.95;23.25;;;15.20;72.80;;;;;;10318309;28;20692;-66
2024/03/10 12:54:05;;;;;;;25.20;22.55;;;15.20;72.70;;;;;;10319476;28;20233;-67
2024/03/10 12:59:10;;;;;;;28.55;24.10;;;15.40;72.60;;;;;;10315642;28;20585;-66
2024/03/10 13:04:15;;;;;;;25.58;22.98;;;15.60;72.60;;;;;;10322319;28;20251;-66
2024/03/10 13:09:22;;;;;;;28.75;24.05;;;15.70;72.90;;;;;;10327890;28;20282;-67
2024/03/10 13:14:27;;;;;;;27.48;24.58;;;15.70;72.10;;;;;;10327346;28;20232;-66
2024/03/10 13:19:32;;;;;;;25.25;22.65;;;15.80;72.50;;;;;;10326108;28;20201;-66
2024/03/10 13:24:38;;;;;;;25.92;23.13;;;15.90;72.60;;;;;;10345866;22;20695;-63
2024/03/10 13:29:42;;;;;;;24.73;22.08;;;16.10;71.80;;;;;;10323111;28;20232;-62
2024/03/10 13:34:46;;;;;;;24.63;22.10;;;16.10;72.00;;;;;;10326114;28;20228;-62
2024/03/10 13:39:51;;;;;;;25.05;22.52;;;16.00;71.40;;;;;;10350669;28;20755;-62
2024/03/10 13:44:54;;;;;;;25.75;22.45;;;15.90;72.00;;;;;;10350566;28;20599;-63
2024/03/10 13:49:58;;;;;;;26.08;23.38;;;15.90;72.00;;;;;;10350522;28;20228;-63
2024/03/10 13:55:06;;;;;;;25.70;22.95;;;15.90;71.30;;;;;;10352152;28;20289;-62
2024/03/10 14:00:13;;;;;;;25.05;22.45;;;15.80;70.90;;;;;;10339103;28;20208;-63
2024/03/10 14:05:18;;;;;;;24.98;22.17;;;15.80;70.40;;;;;;10342319;28;20233;-63
2024/03/10 14:10:26;;;;;;;24.40;21.80;;;15.90;71.20;;;;;;10350114;28;20309;-63
2024/03/10 14:15:33;;;;;;;24.88;22.27;;;16.10;71.00;;;;;;10347955;28;20281;-63
2024/03/10 14:20:44;;;;;;;25.02;22.52;;;16.10;70.90;;;;;;10350837;28;20200;-64
2024/03/10 14:25:49;;;;;;;25.15;22.63;;;16.10;70.40;;;;;;10349426;28;20244;-63
2024/03/10 14:30:53;;;;;;;26.38;23.67;;;16.00;69.40;;;;;;10353354;28;20224;-63
2024/03/10 14:35:56;;;;;;;24.92;22.42;;;16.00;70.70;;;;;;10350957;28;20266;-63
2024/03/10 14:41:01;;;;;;;24.08;21.58;;;16.10;69.90;;;;;;10349108;28;20307;-63
2024/03/10 14:46:05;;;;;;;23.60;21.10;;;16.10;69.80;;;;;;10349886;28;20758;-62
2024/03/10 14:51:09;;;;;;;22.58;20.25;;;16.00;69.10;;;;;;10350444;28;20229;-65
2024/03/10 14:56:14;;;;;;;23.98;21.48;;;15.90;69.60;;;;;;10347523;28;20633;-62
2024/03/10 15:01:20;;;;;;;23.45;20.95;;;15.70;68.80;;;;;;10347715;28;20208;-63
2024/03/10 15:06:32;;;;;;;26.77;21.23;;;15.60;69.40;;;;;;10347968;28;20957;-64
2024/03/10 15:11:38;;;;;;;22.35;19.95;;;15.40;68.60;;;;;;10344099;28;20224;-64
2024/03/10 15:16:42;;;;;;;22.52;20.23;;;15.30;69.00;;;;;;10343060;28;20244;-63
2024/03/10 15:21:46;;;;;;;23.73;20.40;;;15.10;69.00;;;;;;10343004;28;20880;-62
2024/03/10 15:26:52;;;;;;;22.67;20.27;;;14.90;69.30;;;;;;10340129;28;20350;-61
2024/03/10 15:31:56;;;;;;;23.08;20.35;;;14.80;69.00;;;;;;10341480;28;20237;-62
2024/03/10 15:37:05;;;;;;;23.02;20.52;;;14.70;69.50;;;;;;10344425;28;20287;-63
2024/03/10 15:42:10;;;;;;;23.83;21.33;;;14.60;69.40;;;;;;10348091;28;20212;-63
2024/03/10 15:47:14;;;;;;;24.33;21.60;;;14.50;69.50;;;;;;10350494;28;20293;-62
2024/03/10 15:52:17;;;;;;;24.10;21.50;;;14.40;69.60;;;;;;10348615;28;20823;-64
2024/03/10 15:57:24;;;;;;;25.25;22.48;;;14.30;69.20;;;;;;10349160;28;20228;-63
2024/03/10 16:02:27;;;;;;;24.27;21.77;;;14.20;70.10;;;;;;10345183;28;20881;-63
2024/03/10 16:07:31;;;;;;;25.17;22.55;;;14.00;69.90;;;;;;10346718;28;20282;-62
2024/03/10 16:12:37;;;;;;;25.63;22.90;;;13.90;70.50;;;;;;10352533;28;20201;-62
2024/03/10 16:17:41;;;;;;;24.13;21.45;;;13.80;70.80;;;;;;10347545;28;20934;-65
2024/03/10 16:22:45;;;;;;;26.45;23.55;;;13.80;71.00;;;;;;10348701;28;20213;-64
2024/03/10 16:27:51;;;;;;;25.42;22.65;;;13.80;71.50;;;;;;10344524;28;20229;-63
2024/03/10 16:32:57;;;;;;;25.08;22.17;;;13.70;70.70;;;;;;10350244;28;20204;-63
2024/03/10 16:38:01;;;;;;;24.73;22.15;;;13.60;70.80;;;;;;10345833;28;20627;-62
2024/03/10 16:43:06;;;;;;;23.48;21.05;;;13.60;70.50;;;;;;10345891;28;20299;-63
2024/03/10 16:48:09;;;;;;;23.30;20.90;;;13.50;70.30;;;;;;10346698;28;20275;-62
2024/03/10 16:53:14;;;;;;;23.58;21.10;;;13.40;70.60;;;;;;10346588;28;20239;-64
2024/03/10 16:58:20;;;;;;;23.33;20.83;;;13.30;70.50;;;;;;10347198;28;20248;-62
2024/03/10 17:03:24;;;;;;;22.83;20.42;;;13.20;70.90;;;;;;10346699;28;20208;-62
2024/03/10 17:08:29;;;;;;;24.08;21.58;;;13.20;70.90;;;;;;10347266;28;20236;-63
2024/03/10 17:13:35;;;;;;;23.40;21.00;;;13.10;70.70;;;;;;10348684;28;20293;-63
2024/03/10 17:18:38;;;;;;;22.35;20.05;;;13.10;71.10;;;;;;10348727;28;20216;-62
2024/03/10 17:23:42;;;;;;;21.88;19.58;;;13.00;71.10;;;;;;10347215;28;20204;-62
2024/03/10 17:28:48;;;;;;;22.10;19.80;;;12.90;70.90;;;;;;10346209;28;20237;-62
2024/03/10 17:33:51;;;;;;;23.27;20.67;;;12.80;71.00;;;;;;10347641;28;20292;-62
2024/03/10 17:38:55;;;;;;;23.42;20.70;;;12.80;71.30;;;;;;10347167;28;20329;-62
2024/03/10 17:44:00;;;;;;;22.90;20.55;;;12.70;71.10;;;;;;10346145;28;20591;-63
2024/03/10 17:49:04;;;;;;;23.02;20.05;;;12.70;71.30;;;;;;10348985;28;20277;-64
2024/03/10 17:54:09;;;;;;;24.17;21.00;;;12.60;72.70;;;;;;10347377;28;20285;-64
2024/03/10 17:59:14;;;;;;;22.20;19.80;;;12.60;72.00;;;;;;10347632;28;20200;-62
2024/03/10 18:04:18;;;;;;;23.35;20.80;;;12.50;71.60;;;;;;10344373;28;20229;-61
2024/03/10 18:09:21;;;;;;;23.30;20.60;;;12.50;71.80;;;;;;10346687;28;20231;-63
2024/03/10 18:14:26;;;;;;;23.80;20.50;;;12.50;71.70;;;;;;10347909;28;20274;-63
